createdAt,value
2023-03-07T00:00:35.197Z,50.866726
2023-03-07T00:01:35.212Z,50.866699
2023-03-07T00:02:35.237Z,50.866749
2023-03-07T00:03:35.194Z,50.866695
2023-03-07T00:04:35.185Z,50.866673
2023-03-07T00:05:35.168Z,50.866688
2023-03-07T00:06:35.160Z,50.866642
2023-03-07T00:07:35.146Z,50.866665
2023-03-07T00:08:35.149Z,50.866634
2023-03-07T00:09:35.150Z,50.866699
2023-03-07T00:10:35.784Z,50.866688
2023-03-07T00:11:35.140Z,50.866730
2023-03-07T00:12:35.117Z,50.866684
2023-03-07T00:13:35.103Z,50.866695
2023-03-07T00:14:35.098Z,50.866714
2023-03-07T00:15:35.092Z,50.866692
2023-03-07T00:16:35.079Z,50.866734
2023-03-07T00:17:35.113Z,50.866791
2023-03-07T00:18:35.067Z,50.866703
2023-03-07T00:19:35.054Z,50.866695
2023-03-07T00:20:35.040Z,50.866726
2023-03-07T00:21:36.797Z,50.866787
2023-03-07T00:22:35.041Z,50.866810
2023-03-07T00:39:35.951Z,50.866932
2023-03-07T00:40:35.950Z,50.866985
2023-03-07T00:41:35.936Z,50.866951
2023-03-07T00:42:35.936Z,50.866959
2023-03-07T00:43:35.906Z,50.866879
2023-03-07T00:44:36.898Z,50.866783
2023-03-07T00:45:35.915Z,50.866898
2023-03-07T00:46:35.894Z,50.866951
2023-03-07T00:47:35.889Z,50.866966
2023-03-07T00:48:35.867Z,50.866882
2023-03-07T00:49:35.873Z,50.866871
2023-03-07T00:50:35.871Z,50.866844
2023-03-07T00:51:35.860Z,50.866848
2023-03-07T00:52:35.845Z,50.866825
2023-03-07T00:53:35.826Z,50.866848
2023-03-07T00:54:35.827Z,50.866768
2023-03-07T00:55:35.819Z,50.866833
2023-03-07T00:56:35.818Z,50.866791
2023-03-07T00:57:36.406Z,50.866798
2023-03-07T00:58:35.798Z,50.866787
2023-03-07T00:59:35.807Z,50.866776
2023-03-07T01:00:35.870Z,50.866821
2023-03-07T01:01:35.785Z,50.866779
2023-03-07T01:02:35.757Z,50.866825
2023-03-07T01:03:35.759Z,50.866779
2023-03-07T01:04:35.848Z,50.866795
2023-03-07T01:05:35.744Z,50.866825
2023-03-07T01:06:35.724Z,50.866764
2023-03-07T01:07:35.723Z,50.866806
2023-03-07T01:08:35.705Z,50.866795
2023-03-07T01:09:35.704Z,50.866817
2023-03-07T01:10:35.689Z,50.866791
2023-03-07T01:11:36.688Z,50.866829
2023-03-07T01:12:36.335Z,50.866840
2023-03-07T01:13:35.681Z,50.866844
2023-03-07T01:14:35.667Z,50.866837
2023-03-07T01:15:36.405Z,50.866802
2023-03-07T01:16:35.689Z,50.866764
2023-03-07T01:17:35.654Z,50.866760
2023-03-07T01:18:35.840Z,50.866756
2023-03-07T01:19:35.630Z,50.866798
2023-03-07T01:20:35.616Z,50.866776
2023-03-07T01:21:35.626Z,50.866776
2023-03-07T01:22:35.598Z,50.866734
2023-03-07T01:23:35.603Z,50.866768
2023-03-07T01:24:35.629Z,50.866753
2023-03-07T01:25:35.578Z,50.866756
2023-03-07T01:26:35.581Z,50.866772
2023-03-07T01:27:35.559Z,50.866787
2023-03-07T01:28:35.560Z,50.866768
2023-03-07T01:29:35.568Z,50.866776
2023-03-07T01:30:35.542Z,50.866768
2023-03-07T01:31:35.573Z,50.866787
2023-03-07T01:32:35.522Z,50.866795
2023-03-07T01:33:35.522Z,50.866806
2023-03-07T01:34:35.501Z,50.866798
2023-03-07T01:35:35.531Z,50.866795
2023-03-07T01:36:35.578Z,50.866795
2023-03-07T01:37:35.491Z,50.866787
2023-03-07T01:38:35.477Z,50.866764
2023-03-07T01:39:35.464Z,50.866756
2023-03-07T01:40:35.459Z,50.866779
2023-03-07T01:41:35.455Z,50.866772
2023-03-07T01:42:35.453Z,50.866787
2023-03-07T01:43:35.452Z,50.866783
2023-03-07T01:44:35.437Z,50.866791
2023-03-07T01:45:35.477Z,50.866798
2023-03-07T01:46:35.421Z,50.866791
2023-03-07T01:47:35.402Z,50.866817
2023-03-07T01:48:35.396Z,50.866802
2023-03-07T01:49:35.486Z,50.866840
2023-03-07T01:50:35.388Z,50.866798
2023-03-07T01:51:35.373Z,50.866844
2023-03-07T01:52:35.434Z,50.866798
2023-03-07T01:53:35.353Z,50.866821
2023-03-07T01:54:35.340Z,50.866787
2023-03-07T01:55:35.346Z,50.866810
2023-03-07T01:56:35.327Z,50.866829
2023-03-07T01:57:35.334Z,50.866806
2023-03-07T01:58:35.311Z,50.866814
2023-03-07T01:59:37.306Z,50.866779
2023-03-07T02:00:35.311Z,50.866760
2023-03-07T02:01:35.343Z,50.866798
2023-03-07T02:02:35.312Z,50.866776
2023-03-07T02:03:35.272Z,50.866749
2023-03-07T02:04:35.354Z,50.866768
2023-03-07T02:05:35.265Z,50.866791
2023-03-07T02:06:35.256Z,50.866776
2023-03-07T02:07:35.267Z,50.866684
2023-03-07T02:08:35.240Z,50.866749
2023-03-07T02:09:35.226Z,50.866768
2023-03-07T02:10:35.263Z,50.866791
2023-03-07T02:11:35.216Z,50.866753
2023-03-07T02:12:35.221Z,50.866753
2023-03-07T02:13:35.204Z,50.866772
2023-03-07T02:14:35.190Z,50.866745
2023-03-07T02:15:35.241Z,50.866688
2023-03-07T02:16:35.172Z,50.866669
2023-03-07T02:17:35.168Z,50.866695
2023-03-07T02:18:35.163Z,50.866707
2023-03-07T02:19:35.142Z,50.866745
2023-03-07T02:20:35.152Z,50.866768
2023-03-07T02:21:35.134Z,50.866772
2023-03-07T02:22:35.138Z,50.866695
2023-03-07T02:23:35.939Z,50.866722
2023-03-07T02:24:35.106Z,50.866734
2023-03-07T02:25:35.111Z,50.866699
2023-03-07T02:26:35.108Z,50.866684
2023-03-07T02:27:35.091Z,50.866695
2023-03-07T02:28:35.092Z,50.866726
2023-03-07T02:29:35.085Z,50.866703
2023-03-07T02:30:35.081Z,50.866928
2023-03-07T02:31:35.054Z,50.867607
2023-03-07T02:32:35.112Z,50.868202
2023-03-07T02:33:35.051Z,50.867523
2023-03-07T02:34:35.045Z,50.866913
2023-03-07T02:35:35.065Z,50.866726
2023-03-07T02:36:35.039Z,50.866768
2023-03-07T02:37:35.035Z,50.866776
2023-03-07T02:38:35.009Z,50.866844
2023-03-07T02:39:35.000Z,50.866917
2023-03-07T02:40:36.927Z,50.866936
2023-03-07T02:41:34.976Z,50.867020
2023-03-07T02:42:34.982Z,50.867001
2023-03-07T02:43:34.958Z,50.867027
2023-03-07T02:44:34.968Z,50.867027
2023-03-07T02:45:34.944Z,50.866955
2023-03-07T02:46:34.981Z,50.867085
2023-03-07T02:47:34.932Z,50.867020
2023-03-07T02:48:35.935Z,50.867104
2023-03-07T02:49:34.914Z,50.867046
2023-03-07T02:50:34.912Z,50.867149
2023-03-07T02:51:34.896Z,50.867142
2023-03-07T02:52:34.897Z,50.867168
2023-03-07T02:53:34.895Z,50.866955
2023-03-07T02:54:34.874Z,50.866970
2023-03-07T02:55:34.866Z,50.866943
2023-03-07T02:56:34.863Z,50.866905
2023-03-07T02:57:34.849Z,50.867016
2023-03-07T02:58:34.843Z,50.867088
2023-03-07T02:59:34.856Z,50.866959
2023-03-07T03:00:34.834Z,50.867058
2023-03-07T03:01:34.890Z,50.866982
2023-03-07T03:02:34.826Z,50.867043
2023-03-07T03:03:34.809Z,50.866978
2023-03-07T03:04:34.861Z,50.866978
2023-03-07T03:05:34.785Z,50.866943
2023-03-07T03:06:34.797Z,50.866879
2023-03-07T03:07:34.772Z,50.866901
2023-03-07T03:08:34.777Z,50.866909
2023-03-07T03:09:34.767Z,50.866882
2023-03-07T03:10:34.754Z,50.866848
2023-03-07T03:11:34.753Z,50.866867
2023-03-07T03:12:34.746Z,50.866859
2023-03-07T03:13:34.728Z,50.866856
2023-03-07T03:14:34.733Z,50.866879
2023-03-07T03:15:34.708Z,50.866901
2023-03-07T03:16:34.709Z,50.866890
2023-03-07T03:17:34.705Z,50.866875
2023-03-07T03:18:34.687Z,50.866867
2023-03-07T03:19:34.685Z,50.866867
2023-03-07T03:20:34.682Z,50.866901
2023-03-07T03:21:34.681Z,50.866955
2023-03-07T03:22:34.664Z,50.866863
2023-03-07T03:23:34.660Z,50.866871
2023-03-07T03:24:34.642Z,50.866814
2023-03-07T03:25:34.637Z,50.866879
2023-03-07T03:26:34.641Z,50.866844
2023-03-07T03:27:34.653Z,50.866867
2023-03-07T03:28:34.609Z,50.866852
2023-03-07T03:29:34.619Z,50.866795
2023-03-07T03:30:34.587Z,50.866810
2023-03-07T03:31:34.675Z,50.866814
2023-03-07T03:32:34.598Z,50.866825
2023-03-07T03:33:34.577Z,50.866829
2023-03-07T03:34:34.574Z,50.866825
2023-03-07T03:35:34.615Z,50.866802
2023-03-07T03:36:34.563Z,50.866821
2023-03-07T03:37:34.551Z,50.866825
2023-03-07T03:38:34.551Z,50.866798
2023-03-07T03:39:34.522Z,50.866821
2023-03-07T03:40:34.512Z,50.866814
2023-03-07T03:41:34.528Z,50.866821
2023-03-07T03:42:34.519Z,50.866783
2023-03-07T03:43:34.495Z,50.866821
2023-03-07T03:44:34.489Z,50.866829
2023-03-07T03:45:35.350Z,50.866795
2023-03-07T03:46:34.520Z,50.866829
2023-03-07T03:47:34.461Z,50.866837
2023-03-07T03:48:34.445Z,50.866856
2023-03-07T03:49:35.451Z,50.866810
2023-03-07T03:50:34.436Z,50.866821
2023-03-07T03:51:34.427Z,50.866806
2023-03-07T03:52:35.926Z,50.866776
2023-03-07T03:53:34.421Z,50.866776
2023-03-07T03:54:34.400Z,50.866760
2023-03-07T03:55:34.396Z,50.866776
2023-03-07T03:56:34.395Z,50.866741
2023-03-07T03:57:34.384Z,50.866760
2023-03-07T03:58:34.366Z,50.866764
2023-03-07T03:59:34.373Z,50.866776
2023-03-07T04:00:34.357Z,50.866791
2023-03-07T04:01:34.389Z,50.866741
2023-03-07T04:02:34.431Z,50.866707
2023-03-07T04:03:35.329Z,50.866711
2023-03-07T04:04:34.327Z,50.866722
2023-03-07T04:05:34.320Z,50.866707
2023-03-07T04:06:34.307Z,50.866711
2023-03-07T04:07:34.319Z,50.866745
2023-03-07T04:08:34.314Z,50.866783
2023-03-07T04:09:34.295Z,50.866760
2023-03-07T04:10:34.279Z,50.866722
2023-03-07T04:11:34.280Z,50.866783
2023-03-07T04:12:34.272Z,50.866764
2023-03-07T04:13:34.254Z,50.866749
2023-03-07T04:14:34.247Z,50.866756
2023-03-07T04:15:34.262Z,50.866753
2023-03-07T04:16:34.316Z,50.866779
2023-03-07T04:17:34.229Z,50.866753
2023-03-07T04:18:34.232Z,50.866695
2023-03-07T04:19:34.203Z,50.866711
2023-03-07T04:20:34.190Z,50.866734
2023-03-07T04:21:34.191Z,50.866703
2023-03-07T04:22:34.196Z,50.866760
2023-03-07T04:23:34.934Z,50.866737
2023-03-07T04:24:34.167Z,50.866791
2023-03-07T04:25:34.216Z,50.866844
2023-03-07T04:26:34.158Z,50.866779
2023-03-07T04:27:34.140Z,50.866833
2023-03-07T04:28:34.125Z,50.866787
2023-03-07T04:29:34.135Z,50.866741
2023-03-07T04:30:34.926Z,50.866821
2023-03-07T04:31:34.152Z,50.866722
2023-03-07T04:32:34.120Z,50.866676
2023-03-07T04:33:34.093Z,50.866695
2023-03-07T04:34:34.088Z,50.866734
2023-03-07T04:35:34.137Z,50.866737
2023-03-07T04:36:34.067Z,50.866692
2023-03-07T04:37:34.924Z,50.866741
2023-03-07T04:38:34.052Z,50.866665
2023-03-07T04:39:34.055Z,50.866657
2023-03-07T04:40:34.046Z,50.866745
2023-03-07T04:41:34.040Z,50.866764
2023-03-07T04:42:34.034Z,50.866726
2023-03-07T04:43:34.034Z,50.866779
2023-03-07T04:44:34.013Z,50.866787
2023-03-07T04:45:34.002Z,50.866776
2023-03-07T04:46:33.994Z,50.866779
2023-03-07T04:47:33.987Z,50.866772
2023-03-07T04:48:33.984Z,50.866764
2023-03-07T04:49:33.977Z,50.866726
2023-03-07T04:50:33.977Z,50.866810
2023-03-07T04:51:33.953Z,50.866791
2023-03-07T04:52:33.948Z,50.866756
2023-03-07T04:53:33.953Z,50.866814
2023-03-07T04:54:33.934Z,50.866802
2023-03-07T04:55:33.934Z,50.866802
2023-03-07T04:56:33.920Z,50.866787
2023-03-07T04:57:33.913Z,50.866795
2023-03-07T04:58:33.939Z,50.866749
2023-03-07T04:59:33.906Z,50.866768
2023-03-07T05:00:33.900Z,50.866768
2023-03-07T05:01:33.920Z,50.866760
2023-03-07T05:02:33.866Z,50.866772
2023-03-07T05:03:34.439Z,50.866791
2023-03-07T05:04:33.876Z,50.866772
2023-03-07T05:05:35.568Z,50.866898
2023-03-07T05:06:33.852Z,50.867088
2023-03-07T05:07:33.830Z,50.867332
2023-03-07T05:08:35.431Z,50.867065
2023-03-07T05:09:33.820Z,50.866989
2023-03-07T05:10:33.830Z,50.866978
2023-03-07T05:11:33.815Z,50.866962
2023-03-07T05:12:33.805Z,50.867138
2023-03-07T05:13:33.797Z,50.867069
2023-03-07T05:14:33.808Z,50.867176
2023-03-07T05:15:33.867Z,50.867237
2023-03-07T05:16:33.765Z,50.867214
2023-03-07T05:17:33.750Z,50.867130
2023-03-07T05:18:34.412Z,50.867085
2023-03-07T05:19:33.746Z,50.867008
2023-03-07T05:20:33.740Z,50.867046
2023-03-07T05:21:33.724Z,50.866970
2023-03-07T05:22:33.719Z,50.867039
2023-03-07T05:23:33.708Z,50.867012
2023-03-07T05:24:33.699Z,50.867031
2023-03-07T05:25:33.694Z,50.867069
2023-03-07T05:26:33.690Z,50.867046
2023-03-07T05:27:33.682Z,50.866966
2023-03-07T05:28:33.691Z,50.867027
2023-03-07T05:29:33.668Z,50.867020
2023-03-07T05:30:34.369Z,50.866970
2023-03-07T05:31:33.706Z,50.866989
2023-03-07T05:32:33.693Z,50.867031
2023-03-07T05:33:33.623Z,50.867283
2023-03-07T05:34:33.636Z,50.867157
2023-03-07T05:35:33.684Z,50.867039
2023-03-07T05:36:33.649Z,50.867016
2023-03-07T05:37:33.624Z,50.867096
2023-03-07T05:38:33.606Z,50.866997
2023-03-07T05:39:33.586Z,50.867008
2023-03-07T05:40:33.602Z,50.866993
2023-03-07T05:41:34.432Z,50.866955
2023-03-07T05:42:33.565Z,50.867001
2023-03-07T05:43:33.565Z,50.866974
2023-03-07T05:49:41.757Z,50.866756
2023-03-07T05:52:52.224Z,50.866753
2023-03-07T05:53:52.205Z,50.866695
2023-03-07T05:54:52.201Z,50.866634
2023-03-07T05:55:52.197Z,50.866631
2023-03-07T05:56:52.208Z,50.866589
2023-03-07T05:57:52.186Z,50.866562
2023-03-07T05:58:52.174Z,50.866631
2023-03-07T05:59:52.194Z,50.866608
2023-03-07T06:00:52.170Z,50.866695
2023-03-07T06:01:53.063Z,50.866684
2023-03-07T06:02:52.220Z,50.866707
2023-03-07T06:03:52.157Z,50.866722
2023-03-07T06:04:52.145Z,50.866756
2023-03-07T06:05:52.133Z,50.866714
2023-03-07T06:06:52.111Z,50.866688
2023-03-07T06:07:52.128Z,50.866711
2023-03-07T06:08:52.107Z,50.866722
2023-03-07T06:09:52.089Z,50.866741
2023-03-07T06:10:52.102Z,50.866768
2023-03-07T06:11:52.075Z,50.866760
2023-03-07T06:12:52.066Z,50.866703
2023-03-07T06:13:52.080Z,50.866718
2023-03-07T06:14:52.056Z,50.866768
2023-03-07T06:15:52.100Z,50.866848
2023-03-07T06:16:52.035Z,50.866722
2023-03-07T06:17:52.068Z,50.866741
2023-03-07T06:18:52.029Z,50.866833
2023-03-07T06:19:52.998Z,50.866776
2023-03-07T06:20:52.000Z,50.866741
2023-03-07T06:21:52.003Z,50.866825
2023-03-07T06:22:52.574Z,50.866844
2023-03-07T06:23:51.989Z,50.866802
2023-03-07T06:24:55.490Z,50.866768
2023-03-07T06:25:52.019Z,50.866772
2023-03-07T06:26:52.582Z,50.866783
2023-03-07T06:27:51.980Z,50.866756
2023-03-07T06:28:55.514Z,50.866798
2023-03-07T06:29:51.931Z,50.866753
2023-03-07T06:30:51.988Z,50.866806
2023-03-07T06:31:51.923Z,50.866749
2023-03-07T06:32:51.925Z,50.866798
2023-03-07T06:33:51.901Z,50.866791
2023-03-07T06:34:51.905Z,50.866745
2023-03-07T06:35:51.932Z,50.866795
2023-03-07T06:36:51.892Z,50.866859
2023-03-07T06:37:51.877Z,50.866791
2023-03-07T06:38:51.860Z,50.866829
2023-03-07T06:39:51.853Z,50.866802
2023-03-07T06:40:51.837Z,50.866798
2023-03-07T06:41:51.841Z,50.866718
2023-03-07T06:42:51.830Z,50.866829
2023-03-07T06:43:52.571Z,50.866764
2023-03-07T06:44:51.810Z,50.866806
2023-03-07T06:45:51.836Z,50.866692
2023-03-07T06:46:51.811Z,50.866806
2023-03-07T06:47:52.499Z,50.866726
2023-03-07T06:48:53.496Z,50.866695
2023-03-07T06:49:51.776Z,50.866741
2023-03-07T06:50:51.780Z,50.866707
2023-03-07T06:51:51.769Z,50.866734
2023-03-07T06:52:51.766Z,50.866776
2023-03-07T06:53:51.737Z,50.866795
2023-03-07T06:54:51.735Z,50.866772
2023-03-07T06:55:51.725Z,50.866833
2023-03-07T06:56:52.578Z,50.866863
2023-03-07T06:57:51.722Z,50.866932
2023-03-07T06:58:51.711Z,50.866909
2023-03-07T06:59:51.714Z,50.866856
2023-03-07T07:00:51.685Z,50.866802
2023-03-07T07:01:51.847Z,50.866802
2023-03-07T07:02:51.772Z,50.866756
2023-03-07T07:03:51.663Z,50.866779
2023-03-07T07:04:53.579Z,50.866791
2023-03-07T07:05:52.577Z,50.866810
2023-03-07T07:06:51.633Z,50.866776
2023-03-07T07:07:51.626Z,50.866798
2023-03-07T07:08:52.507Z,50.866760
2023-03-07T07:09:51.608Z,50.866764
2023-03-07T07:10:51.614Z,50.866730
2023-03-07T07:11:52.600Z,50.866730
2023-03-07T07:12:51.587Z,50.866756
2023-03-07T07:13:51.597Z,50.866791
2023-03-07T07:14:51.602Z,50.866779
2023-03-07T07:15:51.572Z,50.866772
2023-03-07T07:16:51.602Z,50.866779
2023-03-07T07:17:52.505Z,50.866753
2023-03-07T07:18:51.549Z,50.866734
2023-03-07T07:19:52.503Z,50.866749
2023-03-07T07:20:51.538Z,50.866749
2023-03-07T07:21:51.527Z,50.866753
2023-03-07T07:22:53.505Z,50.866749
2023-03-07T07:23:51.530Z,50.866764
2023-03-07T07:24:51.515Z,50.866779
2023-03-07T07:25:51.499Z,50.866783
2023-03-07T07:26:51.485Z,50.866787
2023-03-07T07:27:51.495Z,50.866783
2023-03-07T07:28:51.469Z,50.866787
2023-03-07T07:29:51.462Z,50.866756
2023-03-07T07:30:51.455Z,50.866776
2023-03-07T07:31:51.625Z,50.866756
2023-03-07T07:32:51.512Z,50.866741
2023-03-07T07:33:51.436Z,50.866730
2023-03-07T07:34:51.427Z,50.866749
2023-03-07T07:35:51.434Z,50.866718
2023-03-07T07:36:51.463Z,50.866737
2023-03-07T07:37:51.398Z,50.866779
2023-03-07T07:38:51.385Z,50.866749
2023-03-07T07:39:54.006Z,50.866753
2023-03-07T07:40:51.379Z,50.866730
2023-03-07T07:41:51.372Z,50.866730
2023-03-07T07:42:51.362Z,50.866753
2023-03-07T07:43:51.362Z,50.866768
2023-03-07T07:44:53.011Z,50.866737
2023-03-07T07:45:51.446Z,50.866730
2023-03-07T07:46:54.015Z,50.866699
2023-03-07T07:47:51.332Z,50.866726
2023-03-07T07:48:51.315Z,50.866749
2023-03-07T07:49:51.306Z,50.866764
2023-03-07T07:50:51.306Z,50.866707
2023-03-07T07:51:51.295Z,50.866711
2023-03-07T07:52:51.289Z,50.866737
2023-03-07T07:53:51.282Z,50.866718
2023-03-07T07:54:51.278Z,50.866711
2023-03-07T07:55:51.276Z,50.866680
2023-03-07T07:56:51.253Z,50.866730
2023-03-07T07:57:51.988Z,50.866737
2023-03-07T07:58:51.241Z,50.866745
2023-03-07T07:59:51.293Z,50.866718
2023-03-07T08:00:51.265Z,50.866730
2023-03-07T08:01:51.380Z,50.866726
2023-03-07T08:02:51.442Z,50.866737
2023-03-07T08:03:51.285Z,50.866734
2023-03-07T08:04:51.184Z,50.866737
2023-03-07T08:05:52.199Z,50.866772
2023-03-07T08:06:51.178Z,50.866730
2023-03-07T08:07:52.093Z,50.866741
2023-03-07T08:08:51.187Z,50.866745
2023-03-07T08:09:51.169Z,50.866730
2023-03-07T08:10:51.158Z,50.866714
2023-03-07T08:11:51.144Z,50.866734
2023-03-07T08:12:53.093Z,50.866726
2023-03-07T08:13:52.017Z,50.866680
2023-03-07T08:14:52.092Z,50.866695
2023-03-07T08:15:53.151Z,50.866684
2023-03-07T08:16:51.101Z,50.866695
2023-03-07T08:17:51.113Z,50.866669
2023-03-07T08:18:53.030Z,50.866703
2023-03-07T08:19:53.042Z,50.866726
2023-03-07T08:20:51.075Z,50.866760
2023-03-07T08:21:51.073Z,50.866802
2023-03-07T08:22:51.978Z,50.866764
2023-03-07T08:23:51.054Z,50.866791
2023-03-07T08:24:51.049Z,50.866829
2023-03-07T08:25:51.037Z,50.866802
2023-03-07T08:26:51.025Z,50.866699
2023-03-07T08:27:51.006Z,50.866753
2023-03-07T08:28:51.007Z,50.866829
2023-03-07T08:29:50.996Z,50.866768
2023-03-07T08:30:51.067Z,50.866776
2023-03-07T08:31:50.981Z,50.866795
2023-03-07T08:32:51.593Z,50.866756
2023-03-07T08:33:51.978Z,50.866756
2023-03-07T08:34:50.955Z,50.866768
2023-03-07T08:35:51.012Z,50.866779
2023-03-07T08:36:50.939Z,50.866772
2023-03-07T08:37:50.926Z,50.866798
2023-03-07T08:38:50.940Z,50.866776
2023-03-07T08:39:50.915Z,50.866726
2023-03-07T08:40:50.920Z,50.866695
2023-03-07T08:44:59.083Z,50.866703
2023-03-07T08:46:00.700Z,50.866711
2023-03-07T08:47:00.094Z,50.866726
2023-03-07T08:47:59.091Z,50.866749
2023-03-07T08:48:59.062Z,50.866776
2023-03-07T08:49:59.047Z,50.866718
2023-03-07T08:50:59.028Z,50.866688
2023-03-07T08:51:59.008Z,50.866684
2023-03-07T08:52:59.005Z,50.866718
2023-03-07T08:53:59.004Z,50.866737
2023-03-07T08:54:58.999Z,50.866703
2023-03-07T08:55:59.033Z,50.866676
2023-03-07T08:56:58.977Z,50.866680
2023-03-07T08:57:58.999Z,50.866684
2023-03-07T08:59:00.738Z,50.866676
2023-03-07T09:00:00.716Z,50.866703
2023-03-07T09:00:58.956Z,50.866707
2023-03-07T09:01:59.014Z,50.866680
2023-03-07T09:02:58.922Z,50.866695
2023-03-07T09:03:58.913Z,50.866703
2023-03-07T09:04:58.990Z,50.866714
2023-03-07T09:05:58.906Z,50.866665
2023-03-07T09:07:01.226Z,50.866631
2023-03-07T09:07:58.887Z,50.866684
2023-03-07T09:08:58.880Z,50.866680
2023-03-07T09:09:59.640Z,50.866611
2023-03-07T09:11:00.737Z,50.866558
2023-03-07T09:11:58.858Z,50.866669
2023-03-07T09:12:58.859Z,50.866837
2023-03-07T09:13:58.847Z,50.866848
2023-03-07T09:14:58.861Z,50.866737
2023-03-07T09:15:58.860Z,50.866764
2023-03-07T09:16:58.805Z,50.866657
2023-03-07T09:17:58.819Z,50.866760
2023-03-07T09:18:58.799Z,50.866795
2023-03-07T09:19:58.793Z,50.866791
2023-03-07T09:20:59.648Z,50.866779
2023-03-07T09:21:58.767Z,50.866768
2023-03-07T09:22:58.777Z,50.866798
2023-03-07T09:23:58.751Z,50.866776
2023-03-07T09:24:58.750Z,50.866791
2023-03-07T09:25:58.745Z,50.866779
2023-03-07T09:26:59.648Z,50.866779
2023-03-07T09:27:58.755Z,50.866791
2023-03-07T09:28:58.713Z,50.866837
2023-03-07T09:29:59.714Z,50.866837
2023-03-07T09:30:58.709Z,50.866833
2023-03-07T09:31:58.695Z,50.866806
2023-03-07T09:32:58.701Z,50.866863
2023-03-07T09:33:58.695Z,50.866837
2023-03-07T09:34:58.699Z,50.866817
2023-03-07T09:35:58.723Z,50.866840
2023-03-07T09:36:58.700Z,50.866867
2023-03-07T09:37:58.660Z,50.866829
2023-03-07T09:38:58.642Z,50.866806
2023-03-07T09:39:58.658Z,50.866783
2023-03-07T09:40:58.638Z,50.866795
2023-03-07T09:41:58.634Z,50.866791
2023-03-07T09:42:58.610Z,50.866814
2023-03-07T09:43:58.640Z,50.866875
2023-03-07T09:44:58.589Z,50.866848
2023-03-07T09:46:00.257Z,50.866856
2023-03-07T09:47:00.155Z,50.866829
2023-03-07T09:47:58.574Z,50.866821
2023-03-07T09:48:58.568Z,50.866810
2023-03-07T09:49:58.579Z,50.866833
2023-03-07T09:51:01.897Z,50.866844
2023-03-07T09:51:59.541Z,50.866833
2023-03-07T09:52:58.531Z,50.866817
2023-03-07T09:53:58.706Z,50.866829
2023-03-07T09:54:58.577Z,50.866802
2023-03-07T09:55:58.530Z,50.866821
2023-03-07T09:56:58.834Z,50.866833
2023-03-07T09:57:58.855Z,50.866764
2023-03-07T09:58:58.745Z,50.866776
2023-03-07T09:59:59.160Z,50.866806
2023-03-07T10:00:58.483Z,50.866802
2023-03-07T10:01:58.480Z,50.866817
2023-03-07T10:02:58.458Z,50.866856
2023-03-07T10:03:58.530Z,50.866848
2023-03-07T10:04:58.449Z,50.866837
2023-03-07T10:05:58.449Z,50.866852
2023-03-07T10:06:58.647Z,50.866802
2023-03-07T10:07:58.425Z,50.866783
2023-03-07T10:08:58.422Z,50.866787
2023-03-07T10:09:58.403Z,50.866829
2023-03-07T10:10:58.409Z,50.866825
2023-03-07T10:11:58.482Z,50.866825
2023-03-07T10:12:58.389Z,50.866863
2023-03-07T10:13:58.416Z,50.866844
2023-03-07T10:14:58.377Z,50.866913
2023-03-07T10:15:58.361Z,50.866890
2023-03-07T10:16:58.444Z,50.866840
2023-03-07T10:17:58.349Z,50.866840
2023-03-07T10:18:58.333Z,50.866817
2023-03-07T10:19:58.323Z,50.866810
2023-03-07T10:20:58.329Z,50.866829
2023-03-07T10:21:58.343Z,50.866787
2023-03-07T10:22:58.308Z,50.866753
2023-03-07T10:23:58.296Z,50.866825
2023-03-07T10:24:58.292Z,50.866817
2023-03-07T10:25:58.299Z,50.866802
2023-03-07T10:26:58.266Z,50.866795
2023-03-07T10:27:58.256Z,50.866787
2023-03-07T10:28:58.256Z,50.866737
2023-03-07T10:29:58.258Z,50.866768
2023-03-07T10:30:58.241Z,50.866802
2023-03-07T10:31:58.289Z,50.866840
2023-03-07T10:32:58.221Z,50.866825
2023-03-07T10:33:58.267Z,50.866829
2023-03-07T10:34:58.211Z,50.866802
2023-03-07T10:35:58.317Z,50.866825
2023-03-07T10:37:08.471Z,50.866852
2023-03-07T10:38:00.186Z,50.866829
2023-03-07T10:38:59.174Z,50.866798
2023-03-07T10:39:58.182Z,50.866825
2023-03-07T10:40:58.163Z,50.866825
2023-03-07T10:41:58.746Z,50.866764
2023-03-07T10:42:58.137Z,50.866848
2023-03-07T10:43:59.686Z,50.866837
2023-03-07T10:44:58.146Z,50.866821
2023-03-07T10:45:58.167Z,50.866726
2023-03-07T10:46:58.169Z,50.866703
2023-03-07T10:47:58.106Z,50.866684
2023-03-07T10:48:58.092Z,50.866684
2023-03-07T10:49:58.098Z,50.866707
2023-03-07T10:50:58.099Z,50.866669
2023-03-07T10:51:58.076Z,50.866684
2023-03-07T10:52:58.075Z,50.866707
2023-03-07T10:53:58.055Z,50.866703
2023-03-07T10:54:58.057Z,50.866688
2023-03-07T10:55:58.065Z,50.866673
2023-03-07T10:56:58.089Z,50.866669
2023-03-07T10:57:58.020Z,50.866695
2023-03-07T10:58:59.012Z,50.866722
2023-03-07T10:59:58.024Z,50.866714
2023-03-07T11:00:58.043Z,50.866718
2023-03-07T11:01:58.025Z,50.866714
2023-03-07T11:02:57.987Z,50.866737
2023-03-07T11:03:58.687Z,50.866787
2023-03-07T11:04:59.099Z,50.866760
2023-03-07T11:05:57.985Z,50.866798
2023-03-07T11:06:57.970Z,50.866837
2023-03-07T11:07:58.694Z,50.866779
2023-03-07T11:08:58.862Z,50.866756
2023-03-07T11:09:58.673Z,50.866829
2023-03-07T11:10:57.916Z,50.866814
2023-03-07T11:12:00.682Z,50.866852
2023-03-07T11:12:59.765Z,50.866821
2023-03-07T11:13:57.991Z,50.866909
2023-03-07T11:14:57.950Z,50.866959
2023-03-07T11:16:10.589Z,50.866997
2023-03-07T11:16:59.877Z,50.866856
2023-03-07T11:17:58.762Z,50.866867
2023-03-07T11:18:57.847Z,50.866848
2023-03-07T11:19:57.851Z,50.866951
2023-03-07T11:20:57.836Z,50.866962
2023-03-07T11:21:57.835Z,50.866936
2023-03-07T11:22:57.817Z,50.867020
2023-03-07T11:23:57.849Z,50.866951
2023-03-07T11:24:57.812Z,50.867008
2023-03-07T11:25:59.658Z,50.866978
2023-03-07T11:26:57.784Z,50.866974
2023-03-07T11:27:57.791Z,50.866959
2023-03-07T11:28:57.770Z,50.866985
2023-03-07T11:29:58.746Z,50.866932
2023-03-07T11:30:57.774Z,50.867058
2023-03-07T11:31:58.747Z,50.866959
2023-03-07T11:32:58.685Z,50.866901
2023-03-07T11:33:59.539Z,50.866898
2023-03-07T11:34:58.759Z,50.866905
2023-03-07T11:35:57.736Z,50.866844
2023-03-07T11:36:57.712Z,50.866791
2023-03-07T11:37:57.755Z,50.866772
2023-03-07T11:38:57.696Z,50.866821
2023-03-07T11:39:57.682Z,50.866783
2023-03-07T11:40:57.695Z,50.866859
2023-03-07T11:41:57.669Z,50.866844
2023-03-07T11:42:57.679Z,50.866840
2023-03-07T11:43:57.714Z,50.866886
2023-03-07T11:44:57.649Z,50.866859
2023-03-07T11:45:57.644Z,50.866863
2023-03-07T11:46:57.647Z,50.866833
2023-03-07T11:47:57.632Z,50.866844
2023-03-07T11:48:57.628Z,50.866814
2023-03-07T11:49:58.755Z,50.866798
2023-03-07T11:50:58.247Z,50.866756